createdAt,value
2018-06-03T00:00:00.010Z,45.60
2018-06-03T00:01:00.040Z,45.40
2018-06-03T00:02:00.059Z,46.80
2018-06-03T00:03:00.072Z,44.90
2018-06-03T00:04:00.093Z,44.00
2018-06-03T00:05:00.111Z,47.80
2018-06-03T00:06:00.132Z,41.60
2018-06-03T00:07:00.165Z,45.60
2018-06-03T00:08:00.179Z,46.80
2018-06-03T00:09:00.192Z,47.30
2018-06-03T00:10:00.220Z,44.50
2018-06-03T00:11:00.249Z,46.60
2018-06-03T00:12:00.265Z,50.80
2018-06-03T00:13:00.280Z,45.60
2018-06-03T00:14:00.299Z,47.60
2018-06-03T00:15:00.327Z,45.30
2018-06-03T00:16:00.340Z,47.60
2018-06-03T00:17:00.364Z,48.30
2018-06-03T00:18:00.386Z,50.20
2018-06-03T00:19:00.404Z,47.10
2018-06-03T00:20:00.437Z,43.10
2018-06-03T00:21:00.439Z,52.40
2018-06-03T00:22:00.471Z,48.20
2018-06-03T00:23:00.485Z,54.60
2018-06-03T00:24:00.506Z,44.60
2018-06-03T00:25:00.527Z,46.00
2018-06-03T00:26:00.545Z,42.00
2018-06-03T00:27:00.571Z,49.10
2018-06-03T00:28:00.588Z,46.60
2018-06-03T00:29:00.603Z,47.50
2018-06-03T00:30:00.629Z,46.70
2018-06-03T00:31:00.655Z,40.70
2018-06-03T00:32:00.669Z,39.10
2018-06-03T00:33:00.691Z,39.30
2018-06-03T00:34:00.708Z,40.20
2018-06-03T00:35:00.728Z,40.80
2018-06-03T00:36:00.760Z,46.20
2018-06-03T00:37:00.775Z,40.90
2018-06-03T00:38:00.785Z,42.80
2018-06-03T00:39:00.824Z,39.90
2018-06-03T00:40:00.845Z,44.60
2018-06-03T00:41:00.861Z,42.60
2018-06-03T00:42:00.869Z,39.90
2018-06-03T00:43:00.892Z,45.70
2018-06-03T00:44:00.938Z,45.40
2018-06-03T00:45:00.934Z,47.50
2018-06-03T00:46:00.965Z,39.70
2018-06-03T00:47:00.987Z,50.20
2018-06-03T00:48:01.004Z,46.70
2018-06-03T00:49:01.012Z,50.70
2018-06-03T00:50:01.036Z,44.40
2018-06-03T00:51:01.057Z,47.00
2018-06-03T00:52:01.076Z,43.60
2018-06-03T00:53:01.096Z,43.60
2018-06-03T00:54:01.113Z,42.00
2018-06-03T00:55:01.134Z,42.10
2018-06-03T00:56:01.176Z,41.50
2018-06-03T00:57:01.182Z,41.10
2018-06-03T00:58:01.201Z,42.90
2018-06-03T00:59:01.248Z,45.70
2018-06-03T01:00:01.240Z,48.00
2018-06-03T01:01:01.257Z,42.10
2018-06-03T01:02:01.286Z,43.30
2018-06-03T01:03:01.309Z,44.20
2018-06-03T01:04:01.326Z,57.20
2018-06-03T01:05:01.347Z,53.40
2018-06-03T01:06:01.365Z,49.00
2018-06-03T01:07:01.383Z,44.70
2018-06-03T01:08:01.408Z,43.50
2018-06-03T01:09:01.430Z,44.10
2018-06-03T01:10:01.445Z,46.60
2018-06-03T01:11:01.468Z,41.70
2018-06-03T01:12:01.493Z,47.50
2018-06-03T01:13:01.506Z,44.90
2018-06-03T01:14:01.529Z,44.50
2018-06-03T01:15:01.555Z,42.40
2018-06-03T01:16:01.590Z,43.20
2018-06-03T01:17:01.586Z,42.80
2018-06-03T01:18:01.616Z,48.50
2018-06-03T01:19:01.634Z,45.80
2018-06-03T01:20:01.661Z,46.30
2018-06-03T01:21:01.678Z,41.20
2018-06-03T01:22:01.697Z,37.10
2018-06-03T01:23:01.725Z,45.50
2018-06-03T01:24:01.735Z,47.60
2018-06-03T01:25:01.761Z,46.00
2018-06-03T01:26:01.770Z,44.70
2018-06-03T01:27:01.809Z,43.90
2018-06-03T01:28:01.816Z,48.30
2018-06-03T01:29:01.839Z,43.00
2018-06-03T01:30:01.861Z,45.80
2018-06-03T01:31:01.874Z,44.70
2018-06-03T01:32:01.901Z,43.30
2018-06-03T01:33:01.925Z,47.00
2018-06-03T01:34:01.941Z,41.70
2018-06-03T01:35:01.975Z,46.20
2018-06-03T01:36:01.989Z,48.00
2018-06-03T01:37:01.999Z,50.50
2018-06-03T01:38:02.024Z,46.70
2018-06-03T01:39:02.043Z,50.20
2018-06-03T01:40:02.065Z,54.40
2018-06-03T01:41:02.092Z,39.80
2018-06-03T01:42:02.110Z,47.10
2018-06-03T01:43:02.148Z,48.20
2018-06-03T01:44:02.149Z,46.10
2018-06-03T01:45:02.252Z,44.60
2018-06-03T01:46:02.187Z,44.50
2018-06-03T01:47:02.216Z,42.40
2018-06-03T01:48:02.236Z,44.10
2018-06-03T01:49:02.248Z,43.00
2018-06-03T01:50:02.275Z,45.00
2018-06-03T01:51:02.295Z,49.80
2018-06-03T01:52:02.317Z,47.10
2018-06-03T01:53:02.344Z,42.30
2018-06-03T01:54:02.350Z,43.20
2018-06-03T01:55:02.377Z,44.50
2018-06-03T01:56:02.399Z,46.00
2018-06-03T01:57:02.416Z,45.70
2018-06-03T01:58:02.453Z,51.10
2018-06-03T01:59:02.455Z,52.80
2018-06-03T02:00:02.482Z,46.80
2018-06-03T02:01:02.498Z,48.70
2018-06-03T02:02:02.519Z,47.30
2018-06-03T02:03:02.539Z,56.20
2018-06-03T02:04:02.563Z,50.20
2018-06-03T02:05:02.586Z,53.10
2018-06-03T02:06:02.600Z,56.00
2018-06-03T02:07:02.627Z,50.00
2018-06-03T02:08:02.662Z,48.30
2018-06-03T02:09:02.674Z,51.60
2018-06-03T02:10:02.685Z,52.30
2018-06-03T02:11:02.715Z,51.20
2018-06-03T02:12:02.739Z,51.00
2018-06-03T02:13:02.749Z,53.40
2018-06-03T02:14:02.769Z,50.00
2018-06-03T02:15:02.797Z,47.10
2018-06-03T02:16:02.810Z,50.70
2018-06-03T02:17:02.823Z,47.40
2018-06-03T02:18:02.857Z,49.30
2018-06-03T02:19:02.871Z,50.90
2018-06-03T02:20:02.889Z,55.70
2018-06-03T02:21:02.915Z,50.70
2018-06-03T02:22:02.933Z,47.20
2018-06-03T02:23:02.951Z,58.80
2018-06-03T02:24:02.981Z,50.90
2018-06-03T02:25:02.996Z,49.80
2018-06-03T02:26:03.012Z,57.40
2018-06-03T02:27:03.069Z,51.00
2018-06-03T02:28:03.089Z,59.00
2018-06-03T02:29:03.084Z,57.00
2018-06-03T02:30:03.110Z,58.40
2018-06-03T02:31:03.115Z,59.40
2018-06-03T02:32:03.141Z,53.50
2018-06-03T02:33:03.168Z,56.20
2018-06-03T02:34:03.177Z,61.20
2018-06-03T02:35:03.221Z,54.90
2018-06-03T02:36:03.230Z,58.70
2018-06-03T02:37:03.247Z,66.60
2018-06-03T02:38:03.260Z,65.40
2018-06-03T02:39:03.289Z,68.60
2018-06-03T02:40:03.309Z,63.50
2018-06-03T02:41:03.323Z,64.30
2018-06-03T02:42:03.346Z,58.80
2018-06-03T02:43:03.391Z,63.70
2018-06-03T02:44:03.393Z,65.10
2018-06-03T02:45:03.405Z,66.30
2018-06-03T02:46:03.436Z,61.10
2018-06-03T02:47:03.448Z,63.30
2018-06-03T02:48:03.464Z,63.80
2018-06-03T02:49:03.492Z,65.30
2018-06-03T02:50:03.511Z,66.60
2018-06-03T02:51:03.526Z,64.40
2018-06-03T02:52:03.560Z,65.90
2018-06-03T02:53:03.566Z,67.30
2018-06-03T02:54:03.594Z,62.10
2018-06-03T02:55:03.628Z,65.90
2018-06-03T02:56:03.636Z,63.20
2018-06-03T02:57:03.704Z,70.60
2018-06-03T02:58:03.685Z,61.20
2018-06-03T02:59:03.699Z,65.10
2018-06-03T03:00:03.715Z,60.70
2018-06-03T03:01:03.733Z,64.30
2018-06-03T03:02:03.763Z,57.20
2018-06-03T03:03:03.775Z,62.40
2018-06-03T03:04:03.796Z,59.00
2018-06-03T03:05:03.829Z,56.80
2018-06-03T03:06:03.848Z,62.80
2018-06-03T03:07:03.866Z,58.70
2018-06-03T03:08:03.887Z,61.00
2018-06-03T03:09:03.900Z,63.10
2018-06-03T03:10:03.923Z,67.40
2018-06-03T03:11:03.943Z,70.10
2018-06-03T03:12:03.972Z,70.40
2018-06-03T03:13:03.990Z,72.00
2018-06-03T03:14:04.005Z,69.90
2018-06-03T03:15:04.032Z,64.90
2018-06-03T03:16:04.067Z,65.50
2018-06-03T03:17:04.073Z,65.80
2018-06-03T03:18:04.098Z,64.60
2018-06-03T03:19:04.115Z,65.80
2018-06-03T03:20:04.144Z,61.00
2018-06-03T03:21:04.167Z,61.20
2018-06-03T03:22:04.187Z,65.20
2018-06-03T03:23:04.199Z,69.20
2018-06-03T03:24:04.213Z,64.90
2018-06-03T03:25:04.234Z,68.60
2018-06-03T03:26:04.260Z,67.30
2018-06-03T03:27:04.281Z,69.50
2018-06-03T03:28:04.298Z,62.50
2018-06-03T03:29:04.318Z,68.30
2018-06-03T03:30:04.339Z,64.50
2018-06-03T03:31:04.363Z,65.90
2018-06-03T03:32:04.380Z,65.00
2018-06-03T03:33:04.401Z,73.00
2018-06-03T03:34:04.425Z,65.50
2018-06-03T03:35:04.446Z,64.40
2018-06-03T03:36:04.470Z,70.10
2018-06-03T03:37:04.480Z,60.30
2018-06-03T03:38:04.514Z,57.20
2018-06-03T03:39:04.534Z,72.10
2018-06-03T03:40:04.546Z,67.40
2018-06-03T03:41:04.569Z,65.80
2018-06-03T03:42:04.598Z,74.10
2018-06-03T03:43:04.611Z,74.10
2018-06-03T03:44:04.630Z,71.20
2018-06-03T03:45:04.652Z,68.30
2018-06-03T03:46:04.677Z,61.70
2018-06-03T03:47:04.699Z,66.40
2018-06-03T03:48:04.717Z,69.70
2018-06-03T03:49:04.735Z,71.70
2018-06-03T03:50:04.756Z,71.50
2018-06-03T03:51:04.776Z,77.30
2018-06-03T03:52:04.809Z,72.50
2018-06-03T03:53:04.821Z,70.30
2018-06-03T03:54:04.840Z,69.70
2018-06-03T03:55:04.863Z,69.00
2018-06-03T03:56:04.883Z,68.10
2018-06-03T03:57:04.903Z,65.40
2018-06-03T03:58:04.926Z,69.30
2018-06-03T03:59:04.943Z,65.90
2018-06-03T04:00:04.967Z,68.60
2018-06-03T04:01:04.997Z,69.50
2018-06-03T04:02:05.010Z,71.20
2018-06-03T04:03:05.039Z,73.10
2018-06-03T04:04:05.050Z,71.30
2018-06-03T04:05:05.077Z,64.40
2018-06-03T04:06:05.090Z,69.70
2018-06-03T04:07:05.115Z,70.50
2018-06-03T04:08:05.146Z,64.10
2018-06-03T04:09:05.167Z,63.80
2018-06-03T04:10:05.178Z,70.70
2018-06-03T04:11:05.200Z,65.40
2018-06-03T04:12:05.218Z,66.70
2018-06-03T04:13:05.264Z,67.60
2018-06-03T04:14:05.265Z,70.20
2018-06-03T04:15:05.292Z,75.80
2018-06-03T04:16:05.308Z,73.90
2018-06-03T04:17:05.332Z,71.00
2018-06-03T04:18:05.348Z,82.10
2018-06-03T04:19:05.372Z,77.00
2018-06-03T04:20:05.397Z,70.20
2018-06-03T04:21:05.417Z,82.70
2018-06-03T04:22:05.435Z,72.30
2018-06-03T04:23:05.451Z,72.80
2018-06-03T04:24:05.480Z,73.20
2018-06-03T04:25:05.500Z,74.60
2018-06-03T04:26:05.521Z,78.00
2018-06-03T04:27:05.536Z,78.50
2018-06-03T04:28:05.568Z,69.70
2018-06-03T04:29:05.603Z,71.10
2018-06-03T04:30:05.630Z,75.60
2018-06-03T04:31:05.626Z,65.20
2018-06-03T04:32:05.650Z,70.80
2018-06-03T04:33:05.663Z,66.20
2018-06-03T04:34:05.688Z,67.70
2018-06-03T04:35:05.709Z,65.50
2018-06-03T04:36:05.729Z,69.10
2018-06-03T04:37:05.752Z,62.40
2018-06-03T04:38:05.773Z,66.70
2018-06-03T04:39:05.804Z,65.20
2018-06-03T04:40:05.824Z,64.50
2018-06-03T04:41:05.850Z,71.20
2018-06-03T04:42:05.871Z,70.40
2018-06-03T04:43:05.886Z,75.00
2018-06-03T04:44:05.912Z,67.50
2018-06-03T04:45:05.928Z,66.80
2018-06-03T04:46:05.952Z,75.00
2018-06-03T04:47:05.966Z,71.70
2018-06-03T04:48:05.986Z,65.80
2018-06-03T04:49:06.011Z,72.30
2018-06-03T04:50:06.034Z,73.00
2018-06-03T04:51:06.055Z,63.90
2018-06-03T04:52:06.075Z,67.40
2018-06-03T04:53:06.128Z,69.60
2018-06-03T04:54:06.119Z,72.70
2018-06-03T04:55:06.188Z,74.00
2018-06-03T04:56:06.172Z,64.40
2018-06-03T04:57:06.181Z,68.50
2018-06-03T04:58:06.219Z,62.30
2018-06-03T04:59:06.233Z,69.40
2018-06-03T05:00:06.277Z,68.00
2018-06-03T05:01:06.280Z,71.60
2018-06-03T05:02:06.289Z,70.40
2018-06-03T05:03:06.311Z,65.90
2018-06-03T05:04:06.338Z,66.80
2018-06-03T05:05:06.355Z,60.70
2018-06-03T05:06:06.383Z,62.90
2018-06-03T05:07:06.422Z,68.40
2018-06-03T05:08:06.447Z,68.30
2018-06-03T05:09:06.444Z,60.70
2018-06-03T05:10:06.477Z,63.80
2018-06-03T05:11:06.501Z,60.90
2018-06-03T05:12:06.534Z,61.30
2018-06-03T05:13:06.631Z,64.20
2018-06-03T05:14:06.553Z,61.00
2018-06-03T05:15:06.585Z,67.90
2018-06-03T05:16:06.595Z,61.00
2018-06-03T05:17:06.616Z,66.00
2018-06-03T05:18:06.636Z,63.50
2018-06-03T05:19:06.662Z,66.50
2018-06-03T05:20:06.682Z,67.60
2018-06-03T05:21:06.701Z,65.30
2018-06-03T05:22:06.726Z,67.30
2018-06-03T05:23:06.749Z,64.50
2018-06-03T05:24:06.783Z,66.20
2018-06-03T05:25:06.792Z,58.40
2018-06-03T05:26:06.814Z,66.70
2018-06-03T05:27:06.836Z,68.70
2018-06-03T05:28:06.858Z,68.30
2018-06-03T05:29:06.875Z,64.80
2018-06-03T05:30:06.924Z,63.70
2018-06-03T05:31:06.918Z,64.00
2018-06-03T05:32:06.951Z,68.20
2018-06-03T05:33:06.958Z,63.90
2018-06-03T05:34:06.989Z,61.70
2018-06-03T05:35:07.004Z,64.60
2018-06-03T05:36:07.033Z,62.00
2018-06-03T05:37:07.053Z,63.60
2018-06-03T05:38:07.071Z,68.30
2018-06-03T05:39:07.103Z,68.00
2018-06-03T05:40:07.116Z,66.30
2018-06-03T05:41:07.137Z,70.80
2018-06-03T05:42:07.157Z,65.00
2018-06-03T05:43:07.177Z,61.80
2018-06-03T05:44:07.217Z,61.40
2018-06-03T05:45:07.230Z,69.30
2018-06-03T05:46:07.249Z,64.90
2018-06-03T05:47:07.263Z,66.60
2018-06-03T05:48:07.299Z,63.20
2018-06-03T05:49:07.307Z,61.20
2018-06-03T05:50:07.332Z,63.60
2018-06-03T05:51:07.356Z,67.40
2018-06-03T05:52:07.379Z,65.50
2018-06-03T05:53:07.391Z,65.90
2018-06-03T05:54:07.422Z,62.30
2018-06-03T05:55:07.446Z,66.50
2018-06-03T05:56:07.466Z,72.00
2018-06-03T05:57:07.487Z,69.10
2018-06-03T05:58:07.525Z,69.10
2018-06-03T05:59:07.533Z,68.10
2018-06-03T06:00:07.559Z,66.60
2018-06-03T06:01:07.576Z,66.30
2018-06-03T06:02:07.593Z,68.70
2018-06-03T06:03:07.618Z,74.10
2018-06-03T06:04:07.642Z,63.60
2018-06-03T06:05:07.670Z,67.00
2018-06-03T06:06:07.690Z,62.40
2018-06-03T06:07:07.719Z,68.80
2018-06-03T06:08:07.743Z,63.60
2018-06-03T06:09:07.780Z,62.20
2018-06-03T06:10:07.797Z,69.40
2018-06-03T06:11:07.792Z,64.60
2018-06-03T06:12:07.829Z,63.00
2018-06-03T06:13:07.839Z,69.40
2018-06-03T06:14:07.877Z,67.00
2018-06-03T06:15:07.894Z,65.50
2018-06-03T06:16:07.910Z,72.40
2018-06-03T06:17:07.932Z,67.10
2018-06-03T06:18:07.965Z,69.60
2018-06-03T06:19:07.983Z,68.30
2018-06-03T06:20:08.044Z,65.10
2018-06-03T06:21:08.026Z,68.30
2018-06-03T06:22:08.047Z,67.70
2018-06-03T06:23:08.064Z,63.10
2018-06-03T06:24:08.102Z,70.60
2018-06-03T06:25:08.124Z,62.30
2018-06-03T06:26:08.134Z,68.60
2018-06-03T06:27:08.155Z,72.00
2018-06-03T06:28:08.178Z,68.60
2018-06-03T06:29:08.205Z,71.70
2018-06-03T06:30:08.215Z,68.80
2018-06-03T06:31:08.246Z,71.30
2018-06-03T06:32:08.265Z,68.50
2018-06-03T06:33:08.294Z,71.90
2018-06-03T06:34:08.325Z,73.60
2018-06-03T06:35:08.339Z,70.80
2018-06-03T06:36:08.368Z,67.20
2018-06-03T06:37:08.379Z,66.40
2018-06-03T06:38:08.399Z,71.50
2018-06-03T06:39:08.432Z,69.10
2018-06-03T06:40:08.449Z,66.90
2018-06-03T06:41:08.484Z,70.50
2018-06-03T06:42:08.497Z,69.30
2018-06-03T06:43:08.517Z,70.70
2018-06-03T06:44:08.552Z,69.60
2018-06-03T06:45:08.562Z,69.80
2018-06-03T06:46:08.619Z,71.00
2018-06-03T06:47:08.616Z,67.50
2018-06-03T06:48:08.647Z,66.70
2018-06-03T06:49:08.663Z,69.10
2018-06-03T06:50:08.728Z,63.30
2018-06-03T06:51:08.703Z,66.30
2018-06-03T06:52:08.731Z,69.00
2018-06-03T06:53:08.749Z,69.00
2018-06-03T06:54:08.776Z,64.90
2018-06-03T06:55:08.800Z,63.40
2018-06-03T06:56:08.819Z,61.50
2018-06-03T06:57:08.848Z,60.60
2018-06-03T06:58:08.868Z,64.50
2018-06-03T06:59:08.892Z,63.40
2018-06-03T07:00:08.954Z,58.20
2018-06-03T07:01:08.937Z,60.00
2018-06-03T07:02:08.974Z,61.90
2018-06-03T07:03:08.991Z,62.70
2018-06-03T07:04:09.011Z,63.80
2018-06-03T07:05:09.037Z,59.50
2018-06-03T07:06:09.071Z,57.80
2018-06-03T07:07:09.087Z,57.20
2018-06-03T07:08:09.104Z,62.50
2018-06-03T07:09:09.126Z,64.20
2018-06-03T07:10:09.176Z,65.70
2018-06-03T07:11:09.189Z,66.60
2018-06-03T07:12:09.205Z,60.30
2018-06-03T07:13:09.243Z,61.80
2018-06-03T07:14:09.251Z,66.10
2018-06-03T07:15:09.290Z,64.60
2018-06-03T07:16:09.302Z,65.30
2018-06-03T07:17:10.294Z,65.10
2018-06-03T07:18:09.390Z,59.00
2018-06-03T07:19:09.424Z,62.50
2018-06-03T07:20:09.799Z,60.30
2018-06-03T07:21:09.424Z,54.20
2018-06-03T07:22:09.445Z,60.30
2018-06-03T07:23:09.465Z,60.60
2018-06-03T07:24:09.516Z,62.10
2018-06-03T07:25:09.518Z,62.10
2018-06-03T07:26:09.553Z,58.70
2018-06-03T07:27:09.568Z,64.10
2018-06-03T07:28:09.594Z,58.50
2018-06-03T07:29:09.641Z,65.30
2018-06-03T07:30:09.663Z,63.40
2018-06-03T07:31:09.671Z,67.60
2018-06-03T07:32:09.730Z,64.80
2018-06-03T07:33:09.728Z,61.10
2018-06-03T07:34:09.741Z,62.20
2018-06-03T07:35:09.762Z,62.10
2018-06-03T07:36:09.784Z,68.00
2018-06-03T07:37:09.817Z,64.80
2018-06-03T07:38:09.841Z,63.80
2018-06-03T07:39:09.887Z,65.20
2018-06-03T07:40:09.882Z,60.10
2018-06-03T07:41:09.911Z,61.90
2018-06-03T07:42:09.936Z,60.40
2018-06-03T07:43:09.956Z,62.50
2018-06-03T07:44:09.979Z,61.30
2018-06-03T07:45:10.056Z,64.00
2018-06-03T07:46:10.034Z,61.90
2018-06-03T07:47:10.051Z,60.20
2018-06-03T07:48:10.077Z,56.70
2018-06-03T07:49:10.109Z,60.40
2018-06-03T07:50:10.124Z,55.90
2018-06-03T07:51:10.154Z,60.30
2018-06-03T07:52:10.177Z,59.70
2018-06-03T07:53:10.202Z,57.80
2018-06-03T07:54:10.226Z,57.10
2018-06-03T07:55:10.251Z,61.70
2018-06-03T07:56:10.274Z,56.60
2018-06-03T07:57:10.299Z,55.00
2018-06-03T07:58:10.331Z,56.60
2018-06-03T07:59:10.364Z,56.00
2018-06-03T08:00:10.367Z,54.20
2018-06-03T08:01:10.443Z,56.60
2018-06-03T08:02:10.424Z,52.80
2018-06-03T08:03:10.444Z,58.20
2018-06-03T08:04:10.468Z,58.40
2018-06-03T08:05:10.499Z,51.50
2018-06-03T08:06:10.518Z,54.30
2018-06-03T08:07:10.547Z,58.20
2018-06-03T08:08:10.564Z,55.40
2018-06-03T08:09:10.601Z,52.50
2018-06-03T08:10:10.634Z,52.00
2018-06-03T08:11:10.653Z,52.30
2018-06-03T08:12:10.674Z,53.20
2018-06-03T08:13:10.688Z,48.70
2018-06-03T08:14:10.722Z,53.80
2018-06-03T08:15:10.746Z,49.00
2018-06-03T08:16:10.774Z,49.40
2018-06-03T08:17:10.789Z,51.00
2018-06-03T08:18:10.808Z,55.40
2018-06-03T08:19:10.833Z,48.50
2018-06-03T08:20:10.866Z,48.10
2018-06-03T08:21:10.882Z,53.80
2018-06-03T08:22:10.914Z,50.40
2018-06-03T08:23:10.936Z,50.20
2018-06-03T08:24:10.965Z,50.20
2018-06-03T08:25:10.990Z,53.10
2018-06-03T08:26:11.072Z,52.80
2018-06-03T08:27:11.071Z,58.40
2018-06-03T08:28:11.058Z,60.20
2018-06-03T08:29:11.069Z,57.10
2018-06-03T08:30:11.101Z,53.40
2018-06-03T08:31:11.133Z,59.50
2018-06-03T08:32:11.143Z,55.60
2018-06-03T08:33:11.170Z,57.40
2018-06-03T08:34:11.194Z,61.60
2018-06-03T08:35:11.213Z,56.80
2018-06-03T08:36:11.260Z,50.20
2018-06-03T08:37:11.287Z,53.10
2018-06-03T08:38:11.288Z,58.80
2018-06-03T08:39:11.328Z,57.00
2018-06-03T08:40:11.329Z,52.90
2018-06-03T08:41:11.357Z,52.80
2018-06-03T08:42:11.382Z,53.80
2018-06-03T08:43:11.416Z,56.40
2018-06-03T08:44:11.431Z,58.20
2018-06-03T08:45:11.451Z,57.30
2018-06-03T08:46:11.478Z,61.40
2018-06-03T08:47:11.505Z,60.40
2018-06-03T08:48:11.531Z,60.40
2018-06-03T08:49:11.556Z,58.30
2018-06-03T08:50:11.580Z,59.60
2018-06-03T08:51:11.598Z,54.60
2018-06-03T08:52:11.696Z,55.00
2018-06-03T08:53:11.645Z,58.80
2018-06-03T08:54:11.669Z,56.20
2018-06-03T08:55:11.695Z,58.20
2018-06-03T08:56:11.721Z,53.10
2018-06-03T08:57:11.745Z,53.40
2018-06-03T08:58:11.790Z,52.80
2018-06-03T08:59:11.795Z,55.30
2018-06-03T09:00:11.817Z,53.00
2018-06-03T09:01:11.840Z,52.50
2018-06-03T09:02:11.861Z,51.60
2018-06-03T09:03:11.882Z,52.50
2018-06-03T09:04:11.931Z,53.10
2018-06-03T09:05:11.947Z,50.20
2018-06-03T09:06:11.953Z,51.10
2018-06-03T09:07:11.996Z,52.60
2018-06-03T09:08:12.012Z,52.70
2018-06-03T09:09:12.037Z,50.10
2018-06-03T09:10:12.058Z,49.10
2018-06-03T09:11:12.077Z,49.00
2018-06-03T09:12:12.096Z,47.30
2018-06-03T09:13:12.143Z,49.20
2018-06-03T09:14:12.147Z,50.30
2018-06-03T09:15:12.179Z,47.30
2018-06-03T09:16:12.203Z,47.70
2018-06-03T09:17:12.231Z,48.80
2018-06-03T09:18:12.253Z,49.70
2018-06-03T09:19:12.270Z,47.60
2018-06-03T09:20:12.301Z,46.20
2018-06-03T09:21:12.318Z,50.40
2018-06-03T09:22:12.345Z,47.30
2018-06-03T09:23:12.366Z,52.70
2018-06-03T09:24:12.395Z,45.90
2018-06-03T09:25:12.467Z,46.90
2018-06-03T09:26:12.434Z,52.90
2018-06-03T09:27:12.456Z,49.10
2018-06-03T09:28:12.491Z,51.10
2018-06-03T09:29:12.508Z,48.00
2018-06-03T09:30:12.532Z,54.40
2018-06-03T09:31:12.557Z,50.80
2018-06-03T09:32:12.585Z,52.50
2018-06-03T09:33:12.595Z,52.30
2018-06-03T09:34:12.636Z,53.30
2018-06-03T09:35:12.653Z,53.90
2018-06-03T09:36:12.670Z,51.10
2018-06-03T09:37:12.693Z,53.00
2018-06-03T09:38:12.720Z,49.90
2018-06-03T09:39:12.744Z,50.70
2018-06-03T09:40:12.772Z,51.00
2018-06-03T09:41:12.805Z,56.90
2018-06-03T09:42:12.813Z,52.90
2018-06-03T09:43:12.835Z,57.10
2018-06-03T09:44:12.868Z,51.10
2018-06-03T09:45:12.893Z,51.30
2018-06-03T09:46:12.926Z,56.60
2018-06-03T09:47:12.951Z,52.20
2018-06-03T09:48:12.977Z,52.00
2018-06-03T09:49:13.003Z,54.90
2018-06-03T09:50:13.007Z,53.10
2018-06-03T09:51:13.028Z,51.40
2018-06-03T09:52:13.068Z,55.60
2018-06-03T09:53:13.192Z,55.50
2018-06-03T09:54:13.103Z,52.80
2018-06-03T09:55:13.146Z,53.00
2018-06-03T09:56:13.154Z,49.50
2018-06-03T09:57:13.168Z,51.30
2018-06-03T09:58:13.196Z,54.30
2018-06-03T09:59:13.243Z,50.40
2018-06-03T10:00:13.244Z,49.50
2018-06-03T10:01:13.267Z,50.90
2018-06-03T10:02:13.296Z,52.10
2018-06-03T10:03:13.318Z,49.20
2018-06-03T10:04:13.338Z,45.80
2018-06-03T10:05:13.371Z,48.50
2018-06-03T10:06:13.407Z,47.80
2018-06-03T10:07:13.415Z,49.50
2018-06-03T10:08:13.438Z,47.60
2018-06-03T10:09:13.469Z,46.60
2018-06-03T10:10:13.545Z,48.60
2018-06-03T10:11:13.532Z,46.70
2018-06-03T10:12:13.557Z,45.20
2018-06-03T10:13:13.580Z,41.90
2018-06-03T10:14:13.579Z,42.60
2018-06-03T10:15:13.612Z,40.30
2018-06-03T10:16:13.673Z,41.70
2018-06-03T10:17:13.654Z,36.90
2018-06-03T10:18:13.684Z,38.60
2018-06-03T10:19:13.710Z,38.80
2018-06-03T10:20:13.729Z,40.50
2018-06-03T10:21:13.789Z,43.40
2018-06-03T10:22:13.796Z,39.90
2018-06-03T10:23:13.807Z,39.50
2018-06-03T10:24:13.834Z,41.30
2018-06-03T10:25:13.874Z,41.10
2018-06-03T10:26:13.901Z,38.40
2018-06-03T10:27:13.908Z,38.60
2018-06-03T10:28:13.936Z,40.20
2018-06-03T10:29:13.963Z,43.70
2018-06-03T10:30:14.009Z,41.30
2018-06-03T10:31:14.024Z,36.60
2018-06-03T10:32:14.037Z,37.50
2018-06-03T10:33:14.067Z,35.90
2018-06-03T10:34:14.103Z,33.30
2018-06-03T10:35:14.113Z,36.60
2018-06-03T10:36:14.136Z,35.60
2018-06-03T10:37:14.167Z,38.60
2018-06-03T10:38:14.207Z,37.30
2018-06-03T10:39:14.224Z,39.30
2018-06-03T10:40:14.246Z,41.40
2018-06-03T10:41:14.258Z,40.40
2018-06-03T10:42:14.298Z,41.20
2018-06-03T10:43:14.322Z,41.60
2018-06-03T10:44:14.352Z,38.90
2018-06-03T10:45:14.371Z,41.10
2018-06-03T10:46:14.388Z,43.00
2018-06-03T10:47:14.418Z,39.60
2018-06-03T10:48:14.438Z,42.30
2018-06-03T10:49:14.478Z,40.80
2018-06-03T10:50:14.509Z,37.50
2018-06-03T10:51:14.510Z,35.90
2018-06-03T10:52:14.534Z,40.50
2018-06-03T10:53:14.564Z,37.80
2018-06-03T10:54:14.648Z,39.70
2018-06-03T10:55:14.633Z,37.20
2018-06-03T10:56:14.661Z,37.50
2018-06-03T10:57:14.681Z,38.10
2018-06-03T10:58:14.688Z,35.80
2018-06-03T10:59:14.727Z,35.00
2018-06-03T11:00:14.771Z,36.40
2018-06-03T11:01:14.776Z,35.20
2018-06-03T11:02:14.794Z,34.60
2018-06-03T11:03:14.828Z,31.90
2018-06-03T11:04:14.848Z,33.80
2018-06-03T11:05:14.874Z,35.20
2018-06-03T11:06:14.906Z,32.30
2018-06-03T11:07:14.926Z,31.60
2018-06-03T11:08:14.972Z,31.30
2018-06-03T11:09:14.983Z,34.70
2018-06-03T11:10:15.011Z,33.30
2018-06-03T11:11:15.040Z,32.30
2018-06-03T11:12:15.063Z,33.00
2018-06-03T11:13:15.094Z,28.80
2018-06-03T11:14:15.125Z,28.20
2018-06-03T11:15:15.146Z,25.40
2018-06-03T11:16:15.171Z,29.70
2018-06-03T11:17:15.189Z,25.60
2018-06-03T11:18:15.213Z,25.90
2018-06-03T11:19:15.245Z,27.30
2018-06-03T11:20:15.273Z,26.40
2018-06-03T11:21:15.319Z,24.70
2018-06-03T11:22:15.346Z,21.20
2018-06-03T11:23:15.345Z,24.90
2018-06-03T11:24:15.372Z,25.40
2018-06-03T11:25:15.419Z,27.30
2018-06-03T11:26:15.430Z,27.60
2018-06-03T11:27:15.459Z,28.30
2018-06-03T11:28:15.475Z,24.60
2018-06-03T11:29:15.505Z,29.20
2018-06-03T11:30:15.559Z,25.20
2018-06-03T11:31:15.567Z,23.80
2018-06-03T11:32:15.586Z,28.40
2018-06-03T11:33:15.626Z,25.30
2018-06-03T11:34:15.628Z,24.00
2018-06-03T11:35:15.660Z,28.60
2018-06-03T11:36:15.685Z,27.50
2018-06-03T11:37:15.731Z,25.50
2018-06-03T11:38:15.735Z,26.80
2018-06-03T11:39:15.798Z,28.20
2018-06-03T11:40:15.786Z,26.40
2018-06-03T11:41:15.813Z,29.20
2018-06-03T11:42:15.852Z,25.70
2018-06-03T11:43:15.873Z,27.00
2018-06-03T11:44:15.889Z,30.00
2018-06-03T11:45:15.919Z,25.90
2018-06-03T11:46:15.957Z,27.50
2018-06-03T11:47:16.023Z,27.10
2018-06-03T11:48:15.997Z,25.90
2018-06-03T11:49:16.024Z,28.60
2018-06-03T11:50:16.052Z,28.70
2018-06-03T11:51:16.074Z,28.60
2018-06-03T11:52:16.124Z,28.80
2018-06-03T11:53:16.128Z,29.70
2018-06-03T11:54:16.167Z,30.10
2018-06-03T11:55:16.175Z,30.00
2018-06-03T11:56:16.251Z,29.10
2018-06-03T11:57:16.237Z,30.70
2018-06-03T11:58:16.257Z,30.20
2018-06-03T11:59:16.283Z,29.20
2018-06-03T12:00:16.325Z,32.50
2018-06-03T12:01:16.342Z,27.40
2018-06-03T12:02:16.360Z,31.60
2018-06-03T12:03:16.389Z,29.10
2018-06-03T12:04:16.409Z,31.60
2018-06-03T12:05:16.458Z,28.20
2018-06-03T12:06:16.462Z,28.80
2018-06-03T12:07:16.492Z,29.00
2018-06-03T12:08:16.605Z,28.30
2018-06-03T12:09:16.538Z,29.70
2018-06-03T12:10:16.581Z,28.00
2018-06-03T12:11:16.591Z,27.80
2018-06-03T12:12:16.628Z,28.80
2018-06-03T12:13:16.646Z,30.30
2018-06-03T12:14:16.679Z,27.90
2018-06-03T12:15:16.800Z,27.90
2018-06-03T12:16:16.727Z,29.20
2018-06-03T12:17:16.751Z,30.00
2018-06-03T12:18:16.798Z,29.70
2018-06-03T12:19:16.798Z,27.70
2018-06-03T12:20:16.829Z,24.00
2018-06-03T12:21:16.852Z,24.20
2018-06-03T12:22:16.880Z,25.20
2018-06-03T12:23:16.922Z,27.80
2018-06-03T12:24:16.934Z,25.70
2018-06-03T12:25:16.960Z,26.80
2018-06-03T12:26:16.991Z,23.10
2018-06-03T12:27:17.012Z,22.90
2018-06-03T12:28:17.045Z,23.20
2018-06-03T12:29:17.060Z,23.40
2018-06-03T12:30:17.093Z,21.50
2018-06-03T12:31:17.129Z,21.90
2018-06-03T12:32:17.139Z,21.80
2018-06-03T12:33:17.161Z,23.80
2018-06-03T12:34:17.192Z,24.70
2018-06-03T12:35:17.227Z,22.00
2018-06-03T12:36:17.247Z,22.20
2018-06-03T12:37:17.279Z,19.80
2018-06-03T12:38:17.351Z,21.90
2018-06-03T12:39:17.371Z,20.00
2018-06-03T12:40:17.347Z,25.20
2018-06-03T12:41:17.377Z,20.70
2018-06-03T12:42:17.421Z,20.60
2018-06-03T12:43:17.421Z,22.00
2018-06-03T12:44:17.446Z,22.30
2018-06-03T12:45:17.479Z,21.90
2018-06-03T12:46:17.519Z,22.00
2018-06-03T12:47:17.540Z,20.60
2018-06-03T12:48:17.560Z,18.60
2018-06-03T12:49:17.581Z,20.80
2018-06-03T12:50:17.612Z,24.20
2018-06-03T12:51:17.639Z,22.60
2018-06-03T12:52:17.663Z,23.80